Time;durP1;ratioP1;P1;durP2;ratioP2;P2;SDS_P1;SDS_P2;PMS_P1;PMS_P2;Temp;Humidity;BMP_temperature;BMP_pressure;BME280_temperature;BME280_humidity;BME280_pressure;Samples;Min_cycle;Max_cycle;Signal;HPM_P1;HPM_P2
2022/07/07 00:00:16;;;;;;;4.32;1.92;;;18.90;81.30;;;;;;2079043;28;20041;-94
2022/07/07 00:01:35;;;;;;;2.13;1.50;;;19.00;81.40;;;;;;2064558;28;20501;-90
2022/07/07 00:02:54;;;;;;;4.97;1.80;;;19.00;81.40;;;;;;2060071;28;20050;-95
2022/07/07 00:04:13;;;;;;;2.42;1.42;;;19.00;81.50;;;;;;2071523;28;20053;-94
2022/07/07 00:05:33;;;;;;;3.38;1.85;;;18.90;81.50;;;;;;2065994;28;20034;-93
2022/07/07 00:06:52;;;;;;;3.85;1.67;;;18.90;81.60;;;;;;2063496;28;20038;-94
2022/07/07 00:08:12;;;;;;;4.35;2.00;;;18.90;81.60;;;;;;2062674;28;20050;-94
2022/07/07 00:09:31;;;;;;;2.33;1.63;;;18.90;81.70;;;;;;2068542;28;20050;-93
2022/07/07 00:10:51;;;;;;;3.17;1.70;;;18.90;81.70;;;;;;2071598;28;20045;-94
2022/07/07 00:12:11;;;;;;;4.00;2.00;;;18.90;81.80;;;;;;2074447;28;20065;-94
2022/07/07 00:13:30;;;;;;;2.20;1.60;;;18.90;81.80;;;;;;2080746;28;20053;-95
2022/07/07 00:14:50;;;;;;;2.85;1.50;;;18.90;81.80;;;;;;2073122;28;20045;-94
2022/07/07 00:16:09;;;;;;;4.20;1.77;;;18.90;81.90;;;;;;2063772;28;20042;-94
2022/07/07 00:17:29;;;;;;;4.68;1.75;;;18.90;82.00;;;;;;2063681;28;20038;-94
2022/07/07 00:18:48;;;;;;;3.10;1.65;;;18.90;82.00;;;;;;2066153;28;20041;-94
2022/07/07 00:20:08;;;;;;;3.75;1.90;;;18.90;82.10;;;;;;2070578;28;20030;-93
2022/07/07 00:21:28;;;;;;;2.10;1.60;;;18.90;82.10;;;;;;2062455;28;20126;-94
2022/07/07 00:22:47;;;;;;;3.38;1.70;;;18.90;82.20;;;;;;2054918;28;20481;-94
2022/07/07 00:24:07;;;;;;;2.40;1.55;;;18.90;82.20;;;;;;2064900;28;20528;-94
2022/07/07 00:25:26;;;;;;;2.80;1.70;;;18.90;82.30;;;;;;2073761;28;20511;-94
2022/07/07 00:26:45;;;;;;;2.92;1.65;;;18.90;82.30;;;;;;2062068;28;20046;-94
2022/07/07 00:28:04;;;;;;;3.30;1.58;;;18.90;82.40;;;;;;2062394;28;20042;-94
2022/07/07 00:29:24;;;;;;;3.03;1.80;;;18.90;82.40;;;;;;2057803;28;20043;-94
2022/07/07 00:30:43;;;;;;;2.55;1.60;;;18.90;82.50;;;;;;2059418;28;20042;-94
2022/07/07 00:32:03;;;;;;;3.53;1.77;;;18.90;82.50;;;;;;2054801;28;20035;-93
2022/07/07 00:33:22;;;;;;;2.80;1.70;;;18.90;82.60;;;;;;2067929;28;20085;-94
2022/07/07 00:34:41;;;;;;;2.65;1.60;;;18.90;82.60;;;;;;2061832;28;20054;-93
2022/07/07 00:36:00;;;;;;;3.05;1.70;;;18.90;82.60;;;;;;2064095;28;20037;-93
2022/07/07 00:37:20;;;;;;;2.08;1.50;;;18.90;82.80;;;;;;2060316;28;20042;-93
2022/07/07 00:38:40;;;;;;;2.65;1.60;;;18.90;82.80;;;;;;2076778;28;20037;-93
2022/07/07 00:39:59;;;;;;;5.03;1.75;;;18.90;82.90;;;;;;2066075;28;20070;-94
2022/07/07 00:41:18;;;;;;;2.72;1.58;;;18.90;82.90;;;;;;2068355;28;20399;-93
2022/07/07 00:42:38;;;;;;;3.38;1.70;;;18.90;83.00;;;;;;2061184;28;20043;-93
2022/07/07 00:43:58;;;;;;;3.13;1.80;;;18.90;83.00;;;;;;2066453;28;20033;-93
2022/07/07 00:45:18;;;;;;;2.92;1.60;;;18.90;83.00;;;;;;2065453;28;20042;-93
2022/07/07 00:46:46;;;;;;;4.07;1.65;;;18.90;83.10;;;;;;2062763;28;20042;-95
2022/07/07 00:48:07;;;;;;;3.88;1.80;;;18.90;83.20;;;;;;2064674;28;20513;-92
2022/07/07 00:49:27;;;;;;;2.50;1.60;;;18.90;83.20;;;;;;2071552;28;20033;-94
2022/07/07 00:50:48;;;;;;;3.33;1.70;;;18.90;83.20;;;;;;2069883;28;20038;-94
2022/07/07 00:52:08;;;;;;;3.65;1.80;;;18.90;83.20;;;;;;2078939;28;20045;-94
2022/07/07 00:53:27;;;;;;;4.50;1.80;;;18.90;83.30;;;;;;2073532;28;20026;-94
2022/07/07 00:54:56;;;;;;;3.08;1.95;;;18.90;83.30;;;;;;2056875;28;20047;-94
2022/07/07 00:56:15;;;;;;;2.97;1.75;;;18.90;83.30;;;;;;2063797;28;20038;-94
2022/07/07 00:57:34;;;;;;;3.22;1.80;;;19.00;83.40;;;;;;2056936;28;20110;-94
2022/07/07 00:58:54;;;;;;;4.10;1.90;;;18.90;83.40;;;;;;2064484;28;20033;-94
2022/07/07 01:00:15;;;;;;;3.90;1.80;;;18.90;83.50;;;;;;2078150;28;20071;-94
2022/07/07 01:01:39;;;;;;;2.83;1.73;;;18.90;83.50;;;;;;2070924;28;20038;-93
2022/07/07 01:02:58;;;;;;;6.03;2.00;;;18.90;83.60;;;;;;2065074;28;20121;-94
2022/07/07 01:04:18;;;;;;;3.85;1.90;;;19.00;83.70;;;;;;2061855;28;20042;-94
2022/07/07 01:05:40;;;;;;;3.50;1.80;;;19.00;83.80;;;;;;2062805;28;20035;-95
2022/07/07 01:07:01;;;;;;;5.05;2.08;;;18.90;83.80;;;;;;2062776;28;20046;-94
2022/07/07 01:08:20;;;;;;;3.30;1.90;;;19.00;83.90;;;;;;2059842;28;20050;-94
2022/07/07 01:09:41;;;;;;;3.58;1.80;;;19.00;84.10;;;;;;2051458;28;20066;-93
2022/07/07 01:11:01;;;;;;;2.97;1.77;;;19.00;84.20;;;;;;2066457;28;20042;-94
2022/07/07 01:12:20;;;;;;;3.47;2.03;;;18.90;84.20;;;;;;2062723;28;20050;-93
2022/07/07 01:13:40;;;;;;;3.67;2.00;;;19.00;84.40;;;;;;2057401;28;20512;-93
2022/07/07 01:14:59;;;;;;;3.30;1.63;;;19.00;84.50;;;;;;2060490;28;20046;-94
2022/07/07 01:16:18;;;;;;;3.80;2.20;;;18.90;84.50;;;;;;2054535;28;20429;-94
2022/07/07 01:17:38;;;;;;;3.45;1.90;;;18.90;84.70;;;;;;2063949;28;20046;-94
2022/07/07 01:18:57;;;;;;;5.82;2.05;;;18.90;84.80;;;;;;2078720;28;21803;-93
2022/07/07 01:20:19;;;;;;;3.25;2.00;;;18.90;84.90;;;;;;2057748;28;20035;-94
2022/07/07 01:21:54;;;;;;;4.15;2.03;;;18.90;85.00;;;;;;2071037;28;20042;-93
2022/07/07 01:23:14;;;;;;;4.07;2.03;;;18.90;85.10;;;;;;2069087;28;20042;-93
2022/07/07 01:24:33;;;;;;;4.60;2.45;;;18.90;85.10;;;;;;2070625;28;20420;-93
2022/07/07 01:25:53;;;;;;;4.40;2.15;;;18.90;85.30;;;;;;2071306;28;20038;-93
2022/07/07 01:27:18;;;;;;;4.20;2.25;;;18.90;85.30;;;;;;2066275;28;20046;-94
2022/07/07 01:28:37;;;;;;;5.32;2.30;;;18.90;85.40;;;;;;2063850;28;20046;-94
2022/07/07 01:29:57;;;;;;;4.38;2.17;;;18.90;85.40;;;;;;2071236;28;20034;-94
2022/07/07 01:31:18;;;;;;;4.13;2.13;;;18.90;85.50;;;;;;2062548;28;20074;-94
2022/07/07 01:32:37;;;;;;;5.38;2.00;;;18.90;85.50;;;;;;2063284;28;20045;-94
2022/07/07 01:33:57;;;;;;;4.07;1.75;;;18.90;85.50;;;;;;2069352;28;20077;-94
2022/07/07 01:35:17;;;;;;;4.03;2.15;;;18.90;86.10;;;;;;2069769;28;20042;-94
2022/07/07 01:36:36;;;;;;;2.75;1.60;;;18.90;85.60;;;;;;2078724;28;20030;-93
2022/07/07 01:37:56;;;;;;;4.15;1.85;;;18.90;85.60;;;;;;2064184;28;20388;-93
2022/07/07 01:39:15;;;;;;;4.50;2.10;;;18.90;85.70;;;;;;2066687;28;20516;-94
2022/07/07 01:40:34;;;;;;;3.83;1.75;;;18.90;85.80;;;;;;2067397;28;20077;-94
2022/07/07 01:41:53;;;;;;;3.00;1.80;;;18.90;85.80;;;;;;2069760;28;20045;-93
2022/07/07 01:43:12;;;;;;;3.22;1.73;;;18.90;85.80;;;;;;2066431;28;20476;-94
2022/07/07 01:44:33;;;;;;;4.47;2.03;;;18.90;85.90;;;;;;2059029;28;20050;-94
2022/07/07 01:45:52;;;;;;;;;;;19.00;86.00;;;;;;2064070;28;20037;-93
2022/07/07 01:47:12;;;;;;;3.75;1.70;;;18.90;85.70;;;;;;2078019;28;19912;-93
2022/07/07 01:48:32;;;;;;;3.28;1.98;;;18.90;85.80;;;;;;2071945;28;20148;-93
2022/07/07 01:49:52;;;;;;;4.97;1.90;;;18.90;85.80;;;;;;2070113;28;20042;-92
2022/07/07 01:51:11;;;;;;;4.22;1.80;;;18.90;85.90;;;;;;2082755;28;20180;-94
2022/07/07 01:52:30;;;;;;;2.67;1.70;;;18.90;86.00;;;;;;2073584;28;20046;-93
2022/07/07 01:53:49;;;;;;;3.50;1.60;;;18.90;86.10;;;;;;2066693;28;20045;-93
2022/07/07 01:55:09;;;;;;;2.88;1.63;;;18.90;86.10;;;;;;2067590;28;20110;-94
2022/07/07 01:56:28;;;;;;;3.17;1.60;;;18.90;86.20;;;;;;2064519;28;20131;-93
2022/07/07 01:57:47;;;;;;;3.88;1.83;;;18.90;86.20;;;;;;2058694;28;20043;-94
2022/07/07 01:59:07;;;;;;;4.15;1.65;;;18.90;86.30;;;;;;2068312;28;20492;-94
2022/07/07 02:00:26;;;;;;;3.38;1.60;;;18.90;86.30;;;;;;2078938;28;20415;-93
2022/07/07 02:01:45;;;;;;;3.08;1.70;;;18.90;86.30;;;;;;2071976;28;20038;-93
2022/07/07 02:03:05;;;;;;;3.88;1.30;;;18.90;86.40;;;;;;2066437;28;20042;-93
2022/07/07 02:04:24;;;;;;;3.08;1.58;;;18.90;86.40;;;;;;2072955;28;20041;-94
2022/07/07 02:05:43;;;;;;;2.22;1.30;;;18.90;86.30;;;;;;2062748;28;20038;-94
2022/07/07 02:07:03;;;;;;;3.00;1.50;;;19.00;86.40;;;;;;2057028;28;20038;-94
2022/07/07 02:08:22;;;;;;;4.25;1.42;;;19.00;86.30;;;;;;2077741;28;20037;-94
2022/07/07 02:09:42;;;;;;;2.03;1.30;;;19.00;86.30;;;;;;2062837;28;20488;-94
2022/07/07 02:11:13;;;;;;;3.03;1.30;;;19.00;86.30;;;;;;2075846;28;20041;-94
2022/07/07 02:12:33;;;;;;;2.15;1.10;;;19.00;86.30;;;;;;2083135;28;20049;-93
2022/07/07 02:13:53;;;;;;;2.50;1.08;;;19.00;86.20;;;;;;2083526;28;20049;-94
2022/07/07 02:15:12;;;;;;;2.30;1.10;;;19.00;86.20;;;;;;2070969;28;20079;-94
2022/07/07 02:16:33;;;;;;;2.33;1.20;;;19.00;86.20;;;;;;2076443;28;20053;-94
2022/07/07 02:17:53;;;;;;;1.65;1.00;;;19.00;86.30;;;;;;2080641;28;20041;-93
2022/07/07 02:19:12;;;;;;;3.03;1.27;;;19.00;86.30;;;;;;2071934;28;20046;-94
2022/07/07 02:20:31;;;;;;;2.80;0.95;;;19.00;86.20;;;;;;2068085;28;20477;-94
2022/07/07 02:21:51;;;;;;;2.08;1.10;;;19.00;86.20;;;;;;2076080;28;20541;-94
2022/07/07 02:23:10;;;;;;;2.80;1.00;;;19.00;86.20;;;;;;2080185;28;20041;-95
2022/07/07 02:24:29;;;;;;;2.10;1.02;;;19.00;86.20;;;;;;2072373;28;20073;-94
2022/07/07 02:25:49;;;;;;;1.60;1.00;;;19.00;86.20;;;;;;2071748;28;20105;-94
2022/07/07 02:27:08;;;;;;;3.25;1.35;;;19.00;86.20;;;;;;2060877;28;20047;-93
2022/07/07 02:28:27;;;;;;;3.25;1.30;;;19.00;86.20;;;;;;2074010;28;20041;-94
2022/07/07 02:29:46;;;;;;;2.13;1.10;;;19.00;86.30;;;;;;2068789;28;20046;-94
2022/07/07 02:31:07;;;;;;;3.63;1.40;;;19.00;86.50;;;;;;2071615;28;20034;-93
2022/07/07 02:32:26;;;;;;;3.00;1.40;;;18.90;86.60;;;;;;2076183;28;20053;-95
2022/07/07 02:33:45;;;;;;;2.22;1.20;;;18.90;86.80;;;;;;2071514;28;20500;-93
2022/07/07 02:35:05;;;;;;;1.60;0.93;;;18.80;87.00;;;;;;2060196;28;20035;-93
2022/07/07 02:36:24;;;;;;;2.30;1.10;;;18.80;87.10;;;;;;2067531;28;20042;-94
2022/07/07 02:37:44;;;;;;;2.45;1.00;;;18.70;87.20;;;;;;2058845;28;20055;-94
2022/07/07 02:39:03;;;;;;;1.70;1.08;;;18.70;87.30;;;;;;2065640;28;20029;-93
2022/07/07 02:40:22;;;;;;;2.03;0.95;;;18.60;87.40;;;;;;2071783;28;20132;-94
2022/07/07 02:41:41;;;;;;;2.15;0.93;;;18.60;87.60;;;;;;2076785;28;20064;-94
2022/07/07 02:43:01;;;;;;;1.88;0.90;;;18.50;87.90;;;;;;2064184;28;20055;-94
2022/07/07 02:44:20;;;;;;;1.70;0.82;;;18.40;88.20;;;;;;2076945;28;20041;-93
2022/07/07 02:45:40;;;;;;;1.35;0.85;;;18.40;88.50;;;;;;2072178;28;20048;-95
2022/07/07 02:46:59;;;;;;;3.17;1.15;;;18.30;88.70;;;;;;2080243;28;20037;-94
2022/07/07 02:48:21;;;;;;;3.65;0.90;;;18.20;89.00;;;;;;2079932;28;20454;-94
2022/07/07 02:49:40;;;;;;;2.20;0.82;;;18.10;89.40;;;;;;2075770;28;20041;-95
2022/07/07 02:50:59;;;;;;;1.50;0.90;;;18.10;89.70;;;;;;2067300;28;20041;-94
2022/07/07 02:52:19;;;;;;;1.77;0.73;;;18.00;89.80;;;;;;2064756;28;20046;-94
2022/07/07 02:53:38;;;;;;;1.30;0.77;;;17.90;90.00;;;;;;2063718;28;20034;-95
2022/07/07 02:54:58;;;;;;;1.58;0.85;;;17.80;90.10;;;;;;2073065;28;20129;-94
2022/07/07 02:56:18;;;;;;;1.17;0.68;;;17.80;90.20;;;;;;2072093;28;20472;-95
2022/07/07 02:57:37;;;;;;;0.75;0.60;;;17.70;90.30;;;;;;2068177;28;20046;-94
2022/07/07 02:58:56;;;;;;;1.55;0.75;;;17.70;90.40;;;;;;2068818;28;20464;-94
2022/07/07 03:00:16;;;;;;;2.35;0.93;;;17.60;90.40;;;;;;2068077;28;20116;-93
2022/07/07 03:01:35;;;;;;;1.65;0.77;;;17.60;90.50;;;;;;2071887;28;20404;-94
2022/07/07 03:02:55;;;;;;;0.77;0.60;;;17.50;90.60;;;;;;2065602;28;20042;-94
2022/07/07 03:04:14;;;;;;;1.33;0.63;;;17.50;90.70;;;;;;2077463;28;20407;-93
2022/07/07 03:05:34;;;;;;;1.40;0.70;;;17.50;90.70;;;;;;2059157;28;20047;-94
2022/07/07 03:06:53;;;;;;;2.05;0.70;;;17.50;90.80;;;;;;2073878;28;20033;-94
2022/07/07 03:08:13;;;;;;;1.17;0.70;;;17.40;90.80;;;;;;2070540;28;20042;-94
2022/07/07 03:09:32;;;;;;;2.13;0.63;;;17.50;90.90;;;;;;2072217;28;20034;-94
2022/07/07 03:10:52;;;;;;;0.80;0.55;;;17.40;90.80;;;;;;2055892;28;20051;-93
2022/07/07 03:12:11;;;;;;;1.20;0.68;;;17.40;90.90;;;;;;2066609;28;20042;-94
2022/07/07 03:13:31;;;;;;;1.35;0.50;;;17.40;90.90;;;;;;2067046;28;20078;-94
2022/07/07 03:14:50;;;;;;;1.55;0.70;;;17.40;91.00;;;;;;2076743;28;20053;-94
2022/07/07 03:16:09;;;;;;;1.50;0.60;;;17.40;91.00;;;;;;2065859;28;20365;-95
2022/07/07 03:17:28;;;;;;;1.92;0.68;;;17.40;91.00;;;;;;2065863;28;20057;-94
2022/07/07 03:18:47;;;;;;;1.00;0.60;;;17.40;91.00;;;;;;2067303;28;20034;-94
2022/07/07 03:20:07;;;;;;;1.85;0.80;;;17.40;91.00;;;;;;2077720;28;20491;-94
2022/07/07 03:21:27;;;;;;;1.83;0.80;;;17.40;91.10;;;;;;2070136;28;20038;-93
2022/07/07 03:22:46;;;;;;;1.67;0.70;;;17.40;91.10;;;;;;2065941;28;20524;-94
2022/07/07 03:24:06;;;;;;;1.70;0.77;;;17.40;91.10;;;;;;2071948;28;20038;-93
2022/07/07 03:25:25;;;;;;;1.23;0.80;;;17.50;91.10;;;;;;2068122;28;20054;-94
2022/07/07 03:26:44;;;;;;;1.25;0.88;;;17.40;91.10;;;;;;2077871;28;20423;-94
2022/07/07 03:28:04;;;;;;;0.75;0.60;;;17.40;91.10;;;;;;2072586;28;20045;-95
2022/07/07 03:29:23;;;;;;;1.20;0.60;;;17.40;91.20;;;;;;2077619;28;20049;-93
2022/07/07 03:30:42;;;;;;;1.67;0.70;;;17.40;91.20;;;;;;2069956;28;20037;-94
2022/07/07 03:32:02;;;;;;;1.30;0.70;;;17.40;91.20;;;;;;2070016;28;20037;-94
2022/07/07 03:33:21;;;;;;;1.17;0.60;;;17.40;91.20;;;;;;2071759;28;20105;-94
2022/07/07 03:34:41;;;;;;;1.10;0.65;;;17.50;91.20;;;;;;2076741;28;20070;-93
2022/07/07 03:36:00;;;;;;;0.80;0.57;;;17.50;91.30;;;;;;2065669;28;20043;-93
2022/07/07 03:37:19;;;;;;;1.25;0.60;;;17.50;91.30;;;;;;2068365;28;20480;-93
2022/07/07 03:38:39;;;;;;;1.13;0.60;;;17.40;91.30;;;;;;2072899;28;20129;-94
2022/07/07 03:39:59;;;;;;;0.93;0.63;;;17.40;91.30;;;;;;2074635;28;20049;-93
2022/07/07 03:41:18;;;;;;;1.95;0.90;;;17.50;91.30;;;;;;2070709;28;20273;-94
2022/07/07 03:42:37;;;;;;;1.00;0.70;;;17.40;91.40;;;;;;2063801;28;20440;-94
2022/07/07 03:43:56;;;;;;;2.10;0.70;;;17.40;91.40;;;;;;2068916;28;20037;-94
2022/07/07 03:45:16;;;;;;;1.75;0.73;;;17.40;91.40;;;;;;2070776;28;20029;-95
2022/07/07 03:46:35;;;;;;;2.53;0.68;;;17.40;91.50;;;;;;2063454;28;20054;-95
2022/07/07 03:47:54;;;;;;;1.23;0.52;;;17.40;91.50;;;;;;2059883;28;20038;-94
2022/07/07 03:49:14;;;;;;;1.75;0.85;;;17.40;91.50;;;;;;2065979;28;20098;-94
2022/07/07 03:50:33;;;;;;;2.67;0.77;;;17.40;91.60;;;;;;2063237;28;20058;-94
2022/07/07 03:51:52;;;;;;;1.17;0.60;;;17.40;91.60;;;;;;2067844;28;20090;-94
2022/07/07 03:53:11;;;;;;;2.45;0.80;;;17.40;91.70;;;;;;2071733;28;20495;-95
2022/07/07 03:54:30;;;;;;;0.82;0.68;;;17.40;91.70;;;;;;2072279;28;20038;-95
2022/07/07 03:55:50;;;;;;;2.40;0.70;;;17.40;91.70;;;;;;2068438;28;20038;-94
2022/07/07 03:57:09;;;;;;;1.17;0.70;;;17.30;91.70;;;;;;2054223;28;20039;-95
2022/07/07 03:58:28;;;;;;;1.17;0.63;;;17.30;91.70;;;;;;2065855;28;20054;-96
2022/07/07 03:59:47;;;;;;;3.42;0.98;;;17.30;91.80;;;;;;2052606;28;20440;-94
2022/07/07 04:01:07;;;;;;;1.20;0.70;;;17.30;91.90;;;;;;2067820;28;20519;-95
2022/07/07 04:02:26;;;;;;;1.60;0.70;;;17.30;91.90;;;;;;2063773;28;20074;-94
2022/07/07 04:03:45;;;;;;;0.80;0.60;;;17.30;91.90;;;;;;2064252;28;20042;-95
2022/07/07 04:05:05;;;;;;;1.55;0.80;;;17.30;91.90;;;;;;2076620;28;20419;-94
2022/07/07 04:06:24;;;;;;;1.38;0.70;;;17.30;91.90;;;;;;2058693;28;20043;-95
2022/07/07 04:07:45;;;;;;;1.73;0.80;;;17.30;91.90;;;;;;2061832;28;20512;-93
2022/07/07 04:09:06;;;;;;;0.95;0.70;;;17.30;91.90;;;;;;2071912;28;20038;-92
2022/07/07 04:10:25;;;;;;;;;;;17.30;92.00;;;;;;2067166;28;20050;-94
2022/07/07 04:11:44;;;;;;;0.80;0.60;;;17.30;91.90;;;;;;2081155;28;19913;-93
2022/07/07 04:13:04;;;;;;;1.48;0.80;;;17.30;91.80;;;;;;2074562;28;20034;-93
2022/07/07 04:14:23;;;;;;;1.45;0.70;;;17.30;91.90;;;;;;2079112;28;20050;-92
2022/07/07 04:15:42;;;;;;;2.28;0.80;;;17.30;91.90;;;;;;2074875;28;20512;-93
2022/07/07 04:17:02;;;;;;;1.60;0.90;;;17.30;92.00;;;;;;2071416;28;20447;-93
2022/07/07 04:18:21;;;;;;;2.15;0.90;;;17.30;92.00;;;;;;2073702;28;20054;-93
2022/07/07 04:19:40;;;;;;;1.10;0.70;;;17.30;92.00;;;;;;2079245;28;20041;-94
2022/07/07 04:21:00;;;;;;;2.13;0.80;;;17.30;92.00;;;;;;2073786;28;20049;-94
2022/07/07 04:22:19;;;;;;;1.70;0.77;;;17.30;92.00;;;;;;2062260;28;20111;-94
2022/07/07 04:23:38;;;;;;;1.67;0.77;;;17.30;92.10;;;;;;2069245;28;20073;-94
2022/07/07 04:24:58;;;;;;;2.40;0.80;;;17.30;92.10;;;;;;2072475;28;20029;-94
2022/07/07 04:26:17;;;;;;;2.33;0.90;;;17.30;92.10;;;;;;2055849;28;20043;-94
2022/07/07 04:27:36;;;;;;;1.63;0.88;;;17.30;92.10;;;;;;2073207;28;20038;-93
2022/07/07 04:28:56;;;;;;;1.77;0.70;;;17.30;92.10;;;;;;2064728;28;20038;-94
2022/07/07 04:30:15;;;;;;;1.10;0.60;;;17.30;92.20;;;;;;2060631;28;20125;-93
2022/07/07 04:31:35;;;;;;;1.38;0.70;;;17.30;92.20;;;;;;2072876;28;20037;-93
2022/07/07 04:32:54;;;;;;;2.35;0.70;;;17.30;92.20;;;;;;2076923;28;20513;-92
2022/07/07 04:34:13;;;;;;;1.67;0.70;;;17.20;92.30;;;;;;2063015;28;20070;-93
2022/07/07 04:35:32;;;;;;;1.33;0.57;;;17.20;92.30;;;;;;2072900;28;20045;-92
2022/07/07 04:36:52;;;;;;;1.85;0.70;;;17.20;92.30;;;;;;2071537;28;20073;-93
2022/07/07 04:38:11;;;;;;;0.75;0.60;;;17.20;92.40;;;;;;2081773;28;20049;-93
2022/07/07 04:39:30;;;;;;;1.05;0.60;;;17.10;92.40;;;;;;2066691;28;20042;-92
2022/07/07 04:40:49;;;;;;;1.55;0.70;;;17.10;92.40;;;;;;2083397;28;20084;-92
2022/07/07 04:42:09;;;;;;;0.82;0.55;;;17.10;92.40;;;;;;2074079;28;20038;-92
2022/07/07 04:43:28;;;;;;;1.50;0.70;;;17.10;92.40;;;;;;2068356;28;20050;-94
2022/07/07 04:44:47;;;;;;;1.30;0.70;;;17.10;92.40;;;;;;2067790;28;20041;-92
2022/07/07 04:46:06;;;;;;;1.35;0.52;;;17.10;92.50;;;;;;2059970;28;20078;-94
2022/07/07 04:47:26;;;;;;;0.60;0.40;;;17.10;92.50;;;;;;2067057;28;20038;-92
2022/07/07 04:48:45;;;;;;;1.15;0.55;;;17.10;92.50;;;;;;2067228;28;20503;-93
2022/07/07 04:50:05;;;;;;;2.00;0.50;;;17.10;92.50;;;;;;2071176;28;20049;-93
2022/07/07 04:51:24;;;;;;;1.58;0.50;;;17.10;92.50;;;;;;2071111;28;20041;-91
2022/07/07 04:52:44;;;;;;;1.25;0.50;;;17.10;92.50;;;;;;2070723;28;20038;-92
2022/07/07 04:54:03;;;;;;;1.35;0.60;;;17.10;92.50;;;;;;2063006;28;20050;-94
2022/07/07 04:55:24;;;;;;;1.73;0.60;;;17.10;92.50;;;;;;2075888;28;20072;-95
2022/07/07 04:56:43;;;;;;;;;;;17.20;92.50;;;;;;2080922;28;20239;-94
2022/07/07 04:58:03;;;;;;;1.15;0.60;;;17.10;92.40;;;;;;2079834;28;19913;-94
2022/07/07 04:59:22;;;;;;;2.03;0.70;;;17.10;92.30;;;;;;2080452;28;20041;-94
2022/07/07 05:00:41;;;;;;;1.45;0.60;;;17.10;92.30;;;;;;2073974;28;20065;-95
2022/07/07 05:02:03;;;;;;;1.60;0.60;;;17.10;92.30;;;;;;2085843;28;20638;-94
2022/07/07 05:03:24;;;;;;;2.30;0.65;;;17.20;92.40;;;;;;2089625;28;20088;-93
2022/07/07 05:04:43;;;;;;;1.63;0.50;;;17.20;92.40;;;;;;2071394;28;20081;-92
2022/07/07 05:06:03;;;;;;;2.63;0.60;;;17.10;92.30;;;;;;2074729;28;20038;-92
2022/07/07 05:07:22;;;;;;;0.82;0.40;;;17.20;92.40;;;;;;2063756;28;20054;-95
2022/07/07 05:08:42;;;;;;;2.10;0.50;;;17.20;92.30;;;;;;2069944;28;20105;-95
2022/07/07 05:10:01;;;;;;;2.25;0.50;;;17.20;92.40;;;;;;2072455;28;20054;-94
2022/07/07 05:11:20;;;;;;;1.80;0.60;;;17.20;92.30;;;;;;2088638;28;20037;-93
2022/07/07 05:12:40;;;;;;;2.20;0.60;;;17.20;92.30;;;;;;2067610;28;20110;-94
2022/07/07 05:13:59;;;;;;;2.20;0.70;;;17.20;92.40;;;;;;2072371;28;20038;-95
2022/07/07 05:15:18;;;;;;;1.08;0.55;;;17.20;92.40;;;;;;2081568;28;20050;-96
2022/07/07 05:16:38;;;;;;;1.90;0.70;;;17.20;92.40;;;;;;2073473;28;20037;-94
2022/07/07 05:17:57;;;;;;;2.80;0.50;;;17.20;92.40;;;;;;2068088;28;20046;-94
2022/07/07 05:19:16;;;;;;;1.10;0.55;;;17.20;92.40;;;;;;2072972;28;20120;-95
2022/07/07 05:20:35;;;;;;;2.97;0.60;;;17.20;92.40;;;;;;2069108;28;20045;-95
2022/07/07 05:21:55;;;;;;;2.72;0.65;;;17.20;92.50;;;;;;2060875;28;20039;-94
2022/07/07 05:23:14;;;;;;;1.77;0.50;;;17.20;92.50;;;;;;2074664;28;20033;-92
2022/07/07 05:24:34;;;;;;;0.82;0.40;;;17.20;92.50;;;;;;2072556;28;20046;-92
2022/07/07 05:25:54;;;;;;;0.83;0.30;;;17.20;92.50;;;;;;2066366;28;20042;-93
2022/07/07 05:27:13;;;;;;;1.70;0.50;;;17.20;92.50;;;;;;2078284;28;20681;-92
2022/07/07 05:28:33;;;;;;;1.55;0.50;;;17.20;92.50;;;;;;2078798;28;20042;-93
2022/07/07 05:29:52;;;;;;;0.75;0.40;;;17.20;92.50;;;;;;2064890;28;20038;-94
2022/07/07 05:31:14;;;;;;;2.42;0.50;;;17.10;92.60;;;;;;2071906;28;20042;-94
2022/07/07 05:32:34;;;;;;;2.65;0.60;;;17.10;92.60;;;;;;2087039;28;20025;-91
2022/07/07 05:33:53;;;;;;;3.13;0.57;;;17.10;92.70;;;;;;2075216;28;20034;-93
2022/07/07 05:35:13;;;;;;;2.58;0.60;;;17.00;92.70;;;;;;2074442;28;20249;-94
2022/07/07 05:36:32;;;;;;;0.85;0.43;;;17.00;92.80;;;;;;2084850;28;20037;-93
2022/07/07 05:37:52;;;;;;;2.55;0.60;;;16.90;92.80;;;;;;2084820;28;20022;-94
2022/07/07 05:39:14;;;;;;;2.67;0.45;;;16.90;92.90;;;;;;2065770;28;20098;-94
2022/07/07 05:40:34;;;;;;;3.00;0.60;;;16.90;92.90;;;;;;2078095;28;20033;-94
2022/07/07 05:41:54;;;;;;;1.40;0.47;;;16.90;92.90;;;;;;2083442;28;20068;-94
2022/07/07 05:43:13;;;;;;;2.05;0.50;;;16.90;93.00;;;;;;2071097;28;20098;-93
2022/07/07 05:44:32;;;;;;;2.15;0.60;;;16.90;92.90;;;;;;2066727;28;20039;-93
2022/07/07 05:45:52;;;;;;;1.63;0.50;;;17.00;92.90;;;;;;2068693;28;20046;-94
2022/07/07 05:47:11;;;;;;;2.22;0.70;;;17.00;92.90;;;;;;2074450;28;20037;-96
2022/07/07 05:48:30;;;;;;;2.03;0.50;;;17.10;92.90;;;;;;2066158;28;20031;-95
2022/07/07 05:49:50;;;;;;;1.80;0.60;;;17.10;92.80;;;;;;2081726;28;20042;-94
2022/07/07 05:51:10;;;;;;;2.53;0.60;;;17.20;92.70;;;;;;2058256;28;20545;-90
2022/07/07 05:52:29;;;;;;;2.50;0.50;;;17.20;92.60;;;;;;2078624;28;20081;-94
2022/07/07 05:53:48;;;;;;;4.57;0.60;;;17.30;92.60;;;;;;2085758;28;20053;-91
2022/07/07 05:55:08;;;;;;;3.30;0.90;;;17.30;92.60;;;;;;2067011;28;20058;-92
2022/07/07 05:56:28;;;;;;;3.15;0.55;;;17.30;92.60;;;;;;2067649;28;20066;-96
2022/07/07 05:57:47;;;;;;;2.95;0.57;;;17.30;92.50;;;;;;2065335;28;20047;-96
2022/07/07 05:59:06;;;;;;;3.97;0.60;;;17.30;92.60;;;;;;2075459;28;20049;-96
2022/07/07 06:00:26;;;;;;;3.08;0.60;;;17.40;92.60;;;;;;2070715;28;20038;-96
2022/07/07 06:01:45;;;;;;;3.55;0.77;;;17.50;92.50;;;;;;2068689;28;20042;-96
2022/07/07 06:03:04;;;;;;;1.45;0.40;;;17.50;92.40;;;;;;2063182;28;20050;-96
2022/07/07 06:04:25;;;;;;;2.83;0.52;;;17.50;92.40;;;;;;2071371;28;20034;-96
2022/07/07 06:05:44;;;;;;;1.50;0.60;;;17.60;92.30;;;;;;2067024;28;20049;-96
2022/07/07 06:07:04;;;;;;;3.10;0.60;;;17.60;92.30;;;;;;2070812;28;20042;-95
2022/07/07 06:08:23;;;;;;;2.65;0.60;;;17.60;92.20;;;;;;2080175;28;20057;-95
2022/07/07 06:09:42;;;;;;;2.83;0.60;;;17.60;92.20;;;;;;2073602;28;20038;-95
2022/07/07 06:11:01;;;;;;;2.10;0.40;;;17.60;92.20;;;;;;2064773;28;20046;-96
2022/07/07 06:12:21;;;;;;;3.40;0.70;;;17.50;92.20;;;;;;2075483;28;20499;-96
2022/07/07 06:13:40;;;;;;;3.90;0.60;;;17.60;92.30;;;;;;2065242;28;20043;-95
2022/07/07 06:15:01;;;;;;;3.30;0.60;;;17.50;92.30;;;;;;2062051;28;20054;-96
2022/07/07 06:16:38;;;;;;;3.80;0.93;;;17.50;92.30;;;;;;2077102;28;20033;-93
2022/07/07 06:18:00;;;;;;;2.45;0.80;;;17.50;92.30;;;;;;2065137;28;20068;-92
2022/07/07 06:19:20;;;;;;;4.68;0.90;;;17.50;92.30;;;;;;2074286;28;20038;-93
2022/07/07 06:20:39;;;;;;;3.58;0.73;;;17.40;92.30;;;;;;2062728;28;20497;-92
2022/07/07 06:21:58;;;;;;;3.97;0.88;;;17.30;92.30;;;;;;2072968;28;20407;-92
2022/07/07 06:23:18;;;;;;;4.20;0.73;;;17.10;92.40;;;;;;2070368;28;20042;-93
2022/07/07 06:24:37;;;;;;;3.58;0.65;;;17.00;92.60;;;;;;2059468;28;20502;-92
2022/07/07 06:25:56;;;;;;;4.38;0.77;;;16.90;92.70;;;;;;2067405;28;20038;-92
2022/07/07 06:27:15;;;;;;;2.92;0.70;;;16.80;92.80;;;;;;2076349;28;20046;-91
2022/07/07 06:28:34;;;;;;;3.00;0.60;;;16.80;93.00;;;;;;2068837;28;20043;-91
2022/07/07 06:29:57;;;;;;;4.13;0.63;;;16.70;93.00;;;;;;2068200;28;20042;-90
2022/07/07 06:31:16;;;;;;;3.22;0.80;;;16.70;93.10;;;;;;2064948;28;20130;-93
2022/07/07 06:32:36;;;;;;;4.65;0.70;;;16.60;93.10;;;;;;2066955;28;20038;-94
2022/07/07 06:33:58;;;;;;;3.00;0.65;;;16.60;93.10;;;;;;2076064;28;20041;-92
2022/07/07 06:35:20;;;;;;;3.40;0.50;;;16.50;93.20;;;;;;2068245;28;20472;-91
2022/07/07 06:36:39;;;;;;;3.33;0.50;;;16.50;93.20;;;;;;2067652;28;20041;-92
2022/07/07 06:37:58;;;;;;;3.25;0.52;;;16.60;93.20;;;;;;2075375;28;20041;-91
2022/07/07 06:39:17;;;;;;;2.72;0.40;;;16.60;93.20;;;;;;2069074;28;20038;-91
2022/07/07 06:40:39;;;;;;;4.53;0.50;;;16.70;93.20;;;;;;2066989;28;20045;-93
2022/07/07 06:41:59;;;;;;;1.63;0.43;;;16.70;93.00;;;;;;2078918;28;20579;-94
2022/07/07 06:43:19;;;;;;;2.63;0.50;;;16.80;92.90;;;;;;2087867;28;20029;-95
2022/07/07 06:44:38;;;;;;;4.13;0.52;;;16.90;92.90;;;;;;2079190;28;20038;-95
2022/07/07 06:46:06;;;;;;;3.00;0.43;;;16.90;92.80;;;;;;2075623;28;20022;-96
2022/07/07 06:47:25;;;;;;;1.98;0.47;;;17.00;92.80;;;;;;2082524;28;20018;-96
2022/07/07 06:48:48;;;;;;;2.25;0.50;;;17.10;92.70;;;;;;2073647;28;20038;-96
2022/07/07 06:50:15;;;;;;;2.47;0.50;;;17.10;92.60;;;;;;2078348;28;20021;-95
2022/07/07 06:51:50;;;;;;;2.20;0.73;;;17.20;92.50;;;;;;2076979;28;20041;-96
2022/07/07 06:53:10;;;;;;;0.67;0.40;;;17.20;92.40;;;;;;2079309;28;20041;-96
2022/07/07 06:54:31;;;;;;;4.43;0.63;;;17.30;92.40;;;;;;2090475;28;20354;-96
2022/07/07 06:55:51;;;;;;;2.28;0.50;;;17.30;92.40;;;;;;2086492;28;20257;-94